sensor_id;sensor_type;location;lat;lon;timestamp;P1;durP1;ratioP1;P2;durP2;ratioP2
25111;SDS011;13092;51.996;4.458;2022-07-05T00:01:42;8.50;;;4.25;;
25111;SDS011;13092;51.996;4.458;2022-07-05T00:04:10;6.68;;;4.63;;
25111;SDS011;13092;51.996;4.458;2022-07-05T00:06:38;8.07;;;4.90;;
25111;SDS011;13092;51.996;4.458;2022-07-05T00:09:28;5.50;;;4.35;;
25111;SDS011;13092;51.996;4.458;2022-07-05T00:11:56;5.82;;;3.50;;
25111;SDS011;13092;51.996;4.458;2022-07-05T00:14:24;5.95;;;4.22;;
25111;SDS011;13092;51.996;4.458;2022-07-05T00:16:54;5.68;;;4.07;;
25111;SDS011;13092;51.996;4.458;2022-07-05T00:19:22;6.18;;;4.07;;
25111;SDS011;13092;51.996;4.458;2022-07-05T00:21:50;6.57;;;4.43;;
25111;SDS011;13092;51.996;4.458;2022-07-05T00:24:18;7.97;;;4.85;;
25111;SDS011;13092;51.996;4.458;2022-07-05T00:26:47;7.43;;;4.07;;
25111;SDS011;13092;51.996;4.458;2022-07-05T00:29:15;7.05;;;5.35;;
25111;SDS011;13092;51.996;4.458;2022-07-05T00:31:43;8.52;;;5.05;;
25111;SDS011;13092;51.996;4.458;2022-07-05T00:34:11;7.40;;;4.38;;
25111;SDS011;13092;51.996;4.458;2022-07-05T00:36:40;9.73;;;5.03;;
25111;SDS011;13092;51.996;4.458;2022-07-05T00:39:08;6.28;;;5.15;;
25111;SDS011;13092;51.996;4.458;2022-07-05T00:41:36;10.55;;;5.72;;
25111;SDS011;13092;51.996;4.458;2022-07-05T00:44:07;6.82;;;5.50;;
25111;SDS011;13092;51.996;4.458;2022-07-05T00:46:37;9.27;;;7.10;;
25111;SDS011;13092;51.996;4.458;2022-07-05T00:49:05;11.90;;;8.70;;
25111;SDS011;13092;51.996;4.458;2022-07-05T00:51:34;10.77;;;8.90;;
25111;SDS011;13092;51.996;4.458;2022-07-05T00:54:24;14.25;;;9.48;;
25111;SDS011;13092;51.996;4.458;2022-07-05T00:56:52;14.00;;;10.20;;
25111;SDS011;13092;51.996;4.458;2022-07-05T00:59:25;13.35;;;10.93;;
25111;SDS011;13092;51.996;4.458;2022-07-05T01:01:54;15.15;;;11.90;;
25111;SDS011;13092;51.996;4.458;2022-07-05T01:04:22;15.73;;;12.63;;
25111;SDS011;13092;51.996;4.458;2022-07-05T01:06:50;16.05;;;13.35;;
25111;SDS011;13092;51.996;4.458;2022-07-05T01:09:19;16.92;;;13.18;;
25111;SDS011;13092;51.996;4.458;2022-07-05T01:11:50;17.85;;;12.70;;
25111;SDS011;13092;51.996;4.458;2022-07-05T01:14:19;16.05;;;13.05;;
25111;SDS011;13092;51.996;4.458;2022-07-05T01:16:49;16.73;;;12.57;;
25111;SDS011;13092;51.996;4.458;2022-07-05T01:19:19;13.65;;;10.90;;
25111;SDS011;13092;51.996;4.458;2022-07-05T01:21:48;16.35;;;13.30;;
25111;SDS011;13092;51.996;4.458;2022-07-05T01:24:19;14.88;;;11.77;;
25111;SDS011;13092;51.996;4.458;2022-07-05T01:26:48;12.70;;;11.32;;
25111;SDS011;13092;51.996;4.458;2022-07-05T01:29:17;15.73;;;11.93;;
25111;SDS011;13092;51.996;4.458;2022-07-05T01:31:45;17.10;;;14.02;;
25111;SDS011;13092;51.996;4.458;2022-07-05T01:34:13;14.27;;;11.90;;
25111;SDS011;13092;51.996;4.458;2022-07-05T01:36:42;13.82;;;11.63;;
25111;SDS011;13092;51.996;4.458;2022-07-05T01:39:10;17.73;;;13.00;;
25111;SDS011;13092;51.996;4.458;2022-07-05T01:41:39;15.90;;;12.13;;
25111;SDS011;13092;51.996;4.458;2022-07-05T01:44:07;15.27;;;11.38;;
25111;SDS011;13092;51.996;4.458;2022-07-05T01:46:35;16.13;;;12.15;;
25111;SDS011;13092;51.996;4.458;2022-07-05T01:49:08;15.23;;;11.65;;
25111;SDS011;13092;51.996;4.458;2022-07-05T01:51:39;17.45;;;12.48;;
25111;SDS011;13092;51.996;4.458;2022-07-05T01:54:12;17.17;;;12.95;;
25111;SDS011;13092;51.996;4.458;2022-07-05T01:56:42;19.73;;;16.48;;
25111;SDS011;13092;51.996;4.458;2022-07-05T01:59:11;18.10;;;15.50;;
25111;SDS011;13092;51.996;4.458;2022-07-05T02:01:39;20.40;;;16.23;;
25111;SDS011;13092;51.996;4.458;2022-07-05T02:04:08;18.85;;;16.30;;
25111;SDS011;13092;51.996;4.458;2022-07-05T02:06:38;19.92;;;16.33;;
25111;SDS011;13092;51.996;4.458;2022-07-05T02:09:06;17.83;;;15.43;;
25111;SDS011;13092;51.996;4.458;2022-07-05T02:11:34;19.33;;;15.57;;
25111;SDS011;13092;51.996;4.458;2022-07-05T02:14:04;19.55;;;15.10;;
25111;SDS011;13092;51.996;4.458;2022-07-05T02:16:32;22.02;;;16.48;;
25111;SDS011;13092;51.996;4.458;2022-07-05T02:19:00;21.80;;;16.58;;
25111;SDS011;13092;51.996;4.458;2022-07-05T02:21:28;24.10;;;19.70;;
25111;SDS011;13092;51.996;4.458;2022-07-05T02:23:56;25.90;;;20.80;;
25111;SDS011;13092;51.996;4.458;2022-07-05T02:26:24;24.52;;;20.30;;
25111;SDS011;13092;51.996;4.458;2022-07-05T02:28:52;27.55;;;20.35;;
25111;SDS011;13092;51.996;4.458;2022-07-05T02:31:22;23.33;;;20.25;;
25111;SDS011;13092;51.996;4.458;2022-07-05T02:33:50;23.85;;;21.25;;
25111;SDS011;13092;51.996;4.458;2022-07-05T02:36:19;24.25;;;19.67;;
25111;SDS011;13092;51.996;4.458;2022-07-05T02:38:47;26.20;;;20.77;;
25111;SDS011;13092;51.996;4.458;2022-07-05T02:41:15;27.85;;;19.85;;
25111;SDS011;13092;51.996;4.458;2022-07-05T02:43:43;25.85;;;21.25;;
25111;SDS011;13092;51.996;4.458;2022-07-05T02:46:11;25.13;;;20.10;;
25111;SDS011;13092;51.996;4.458;2022-07-05T02:48:44;25.83;;;21.35;;
25111;SDS011;13092;51.996;4.458;2022-07-05T02:51:11;26.00;;;21.55;;
25111;SDS011;13092;51.996;4.458;2022-07-05T02:53:42;27.95;;;22.55;;
25111;SDS011;13092;51.996;4.458;2022-07-05T02:56:10;26.35;;;20.52;;
25111;SDS011;13092;51.996;4.458;2022-07-05T02:58:38;22.50;;;18.25;;
25111;SDS011;13092;51.996;4.458;2022-07-05T03:01:06;23.98;;;19.00;;
25111;SDS011;13092;51.996;4.458;2022-07-05T03:03:34;22.25;;;17.70;;
25111;SDS011;13092;51.996;4.458;2022-07-05T03:06:04;24.90;;;19.38;;
25111;SDS011;13092;51.996;4.458;2022-07-05T03:08:32;24.98;;;20.92;;
25111;SDS011;13092;51.996;4.458;2022-07-05T03:11:00;25.17;;;19.80;;
25111;SDS011;13092;51.996;4.458;2022-07-05T03:13:28;23.83;;;18.00;;
25111;SDS011;13092;51.996;4.458;2022-07-05T03:15:56;21.55;;;17.65;;
25111;SDS011;13092;51.996;4.458;2022-07-05T03:18:24;20.83;;;16.42;;
25111;SDS011;13092;51.996;4.458;2022-07-05T03:20:52;19.80;;;16.15;;
25111;SDS011;13092;51.996;4.458;2022-07-05T03:23:21;21.88;;;16.67;;
25111;SDS011;13092;51.996;4.458;2022-07-05T03:25:49;21.83;;;17.02;;
25111;SDS011;13092;51.996;4.458;2022-07-05T03:28:17;22.42;;;18.80;;
25111;SDS011;13092;51.996;4.458;2022-07-05T03:30:45;20.98;;;16.88;;
25111;SDS011;13092;51.996;4.458;2022-07-05T03:33:13;20.40;;;17.83;;
25111;SDS011;13092;51.996;4.458;2022-07-05T03:35:41;20.35;;;16.13;;
25111;SDS011;13092;51.996;4.458;2022-07-05T03:38:09;21.42;;;17.17;;
25111;SDS011;13092;51.996;4.458;2022-07-05T03:40:39;20.08;;;17.27;;
25111;SDS011;13092;51.996;4.458;2022-07-05T03:43:07;24.60;;;19.08;;
25111;SDS011;13092;51.996;4.458;2022-07-05T03:45:35;22.92;;;19.27;;
25111;SDS011;13092;51.996;4.458;2022-07-05T03:48:03;23.20;;;19.20;;
25111;SDS011;13092;51.996;4.458;2022-07-05T03:50:52;20.55;;;16.25;;
25111;SDS011;13092;51.996;4.458;2022-07-05T03:53:20;23.35;;;18.50;;
25111;SDS011;13092;51.996;4.458;2022-07-05T03:55:49;21.98;;;17.58;;
25111;SDS011;13092;51.996;4.458;2022-07-05T03:58:17;20.40;;;17.48;;
25111;SDS011;13092;51.996;4.458;2022-07-05T04:00:45;24.13;;;19.17;;
25111;SDS011;13092;51.996;4.458;2022-07-05T04:03:14;20.05;;;17.23;;
25111;SDS011;13092;51.996;4.458;2022-07-05T04:05:42;20.48;;;16.98;;
25111;SDS011;13092;51.996;4.458;2022-07-05T04:08:09;21.60;;;17.65;;
25111;SDS011;13092;51.996;4.458;2022-07-05T04:10:38;22.85;;;17.90;;
25111;SDS011;13092;51.996;4.458;2022-07-05T04:13:07;26.15;;;20.17;;
25111;SDS011;13092;51.996;4.458;2022-07-05T04:15:35;25.23;;;19.77;;
25111;SDS011;13092;51.996;4.458;2022-07-05T04:18:03;27.88;;;20.35;;
25111;SDS011;13092;51.996;4.458;2022-07-05T04:20:32;22.70;;;18.27;;
25111;SDS011;13092;51.996;4.458;2022-07-05T04:22:59;22.20;;;17.20;;
25111;SDS011;13092;51.996;4.458;2022-07-05T04:25:27;26.63;;;21.15;;
25111;SDS011;13092;51.996;4.458;2022-07-05T04:27:56;26.48;;;21.50;;
25111;SDS011;13092;51.996;4.458;2022-07-05T04:30:25;27.17;;;21.75;;
25111;SDS011;13092;51.996;4.458;2022-07-05T04:32:53;26.38;;;21.20;;
25111;SDS011;13092;51.996;4.458;2022-07-05T04:35:22;24.08;;;19.67;;
25111;SDS011;13092;51.996;4.458;2022-07-05T04:37:50;23.67;;;19.67;;
25111;SDS011;13092;51.996;4.458;2022-07-05T04:40:18;44.55;;;20.63;;
25111;SDS011;13092;51.996;4.458;2022-07-05T04:42:48;39.38;;;19.88;;
25111;SDS011;13092;51.996;4.458;2022-07-05T04:45:16;35.25;;;20.25;;
25111;SDS011;13092;51.996;4.458;2022-07-05T04:47:45;29.38;;;19.40;;
25111;SDS011;13092;51.996;4.458;2022-07-05T04:50:13;26.08;;;18.02;;
25111;SDS011;13092;51.996;4.458;2022-07-05T04:52:42;22.33;;;17.38;;
25111;SDS011;13092;51.996;4.458;2022-07-05T04:55:09;25.13;;;16.98;;
25111;SDS011;13092;51.996;4.458;2022-07-05T04:57:38;24.40;;;16.77;;
25111;SDS011;13092;51.996;4.458;2022-07-05T05:00:07;19.65;;;15.63;;
25111;SDS011;13092;51.996;4.458;2022-07-05T05:02:35;19.92;;;15.77;;
25111;SDS011;13092;51.996;4.458;2022-07-05T05:05:05;17.05;;;14.65;;
25111;SDS011;13092;51.996;4.458;2022-07-05T05:07:34;16.17;;;13.40;;
25111;SDS011;13092;51.996;4.458;2022-07-05T05:10:04;17.40;;;13.90;;
25111;SDS011;13092;51.996;4.458;2022-07-05T05:12:33;22.98;;;14.63;;
25111;SDS011;13092;51.996;4.458;2022-07-05T05:15:01;33.05;;;17.20;;
25111;SDS011;13092;51.996;4.458;2022-07-05T05:17:34;58.35;;;19.20;;
25111;SDS011;13092;51.996;4.458;2022-07-05T05:20:05;26.05;;;15.52;;
25111;SDS011;13092;51.996;4.458;2022-07-05T05:22:37;19.92;;;14.85;;
25111;SDS011;13092;51.996;4.458;2022-07-05T05:25:05;23.27;;;12.82;;
25111;SDS011;13092;51.996;4.458;2022-07-05T05:27:33;22.48;;;14.02;;
25111;SDS011;13092;51.996;4.458;2022-07-05T05:30:01;19.60;;;12.85;;
25111;SDS011;13092;51.996;4.458;2022-07-05T05:32:30;18.58;;;13.90;;
25111;SDS011;13092;51.996;4.458;2022-07-05T05:34:58;19.50;;;13.70;;
25111;SDS011;13092;51.996;4.458;2022-07-05T05:37:27;20.48;;;14.82;;
25111;SDS011;13092;51.996;4.458;2022-07-05T05:39:55;19.98;;;14.00;;
25111;SDS011;13092;51.996;4.458;2022-07-05T05:42:23;18.65;;;13.27;;
25111;SDS011;13092;51.996;4.458;2022-07-05T05:44:51;22.75;;;14.95;;
25111;SDS011;13092;51.996;4.458;2022-07-05T05:47:19;19.65;;;14.43;;
25111;SDS011;13092;51.996;4.458;2022-07-05T05:49:47;21.95;;;14.98;;
25111;SDS011;13092;51.996;4.458;2022-07-05T05:52:15;19.75;;;14.35;;
25111;SDS011;13092;51.996;4.458;2022-07-05T05:54:44;16.63;;;12.00;;
25111;SDS011;13092;51.996;4.458;2022-07-05T05:57:12;17.33;;;11.68;;
25111;SDS011;13092;51.996;4.458;2022-07-05T05:59:40;17.40;;;11.50;;
25111;SDS011;13092;51.996;4.458;2022-07-05T06:02:08;21.13;;;12.77;;
25111;SDS011;13092;51.996;4.458;2022-07-05T06:04:37;16.40;;;11.15;;
25111;SDS011;13092;51.996;4.458;2022-07-05T06:07:05;16.48;;;10.73;;
25111;SDS011;13092;51.996;4.458;2022-07-05T06:09:33;12.60;;;6.97;;
25111;SDS011;13092;51.996;4.458;2022-07-05T06:12:03;14.38;;;7.55;;
25111;SDS011;13092;51.996;4.458;2022-07-05T06:14:31;17.50;;;6.65;;
25111;SDS011;13092;51.996;4.458;2022-07-05T06:16:59;13.63;;;7.80;;
25111;SDS011;13092;51.996;4.458;2022-07-05T06:19:27;12.73;;;6.13;;
25111;SDS011;13092;51.996;4.458;2022-07-05T06:21:55;7.70;;;5.13;;
25111;SDS011;13092;51.996;4.458;2022-07-05T06:24:25;8.15;;;3.50;;
25111;SDS011;13092;51.996;4.458;2022-07-05T06:26:53;9.05;;;4.00;;
25111;SDS011;13092;51.996;4.458;2022-07-05T06:29:25;5.20;;;3.50;;
25111;SDS011;13092;51.996;4.458;2022-07-05T06:31:53;5.85;;;3.42;;
25111;SDS011;13092;51.996;4.458;2022-07-05T06:34:21;6.90;;;3.17;;
25111;SDS011;13092;51.996;4.458;2022-07-05T06:36:49;6.18;;;3.38;;
25111;SDS011;13092;51.996;4.458;2022-07-05T06:39:17;5.43;;;2.92;;
25111;SDS011;13092;51.996;4.458;2022-07-05T06:41:45;4.65;;;2.38;;
25111;SDS011;13092;51.996;4.458;2022-07-05T06:44:13;7.22;;;2.67;;
25111;SDS011;13092;51.996;4.458;2022-07-05T06:47:02;7.50;;;2.50;;
25111;SDS011;13092;51.996;4.458;2022-07-05T06:49:31;4.00;;;2.20;;
25111;SDS011;13092;51.996;4.458;2022-07-05T06:51:59;2.85;;;2.10;;
25111;SDS011;13092;51.996;4.458;2022-07-05T06:54:27;4.20;;;2.08;;
25111;SDS011;13092;51.996;4.458;2022-07-05T06:57:18;5.90;;;2.40;;
25111;SDS011;13092;51.996;4.458;2022-07-05T07:00:03;4.85;;;1.98;;
25111;SDS011;13092;51.996;4.458;2022-07-05T07:02:53;3.30;;;1.63;;
25111;SDS011;13092;51.996;4.458;2022-07-05T07:05:22;3.90;;;1.75;;
25111;SDS011;13092;51.996;4.458;2022-07-05T07:07:55;2.22;;;1.63;;
25111;SDS011;13092;51.996;4.458;2022-07-05T07:10:40;4.03;;;1.80;;
25111;SDS011;13092;51.996;4.458;2022-07-05T07:13:13;3.55;;;1.60;;
25111;SDS011;13092;51.996;4.458;2022-07-05T07:15:40;4.18;;;1.90;;
25111;SDS011;13092;51.996;4.458;2022-07-05T07:18:13;5.78;;;1.60;;
25111;SDS011;13092;51.996;4.458;2022-07-05T07:20:41;3.38;;;1.70;;
25111;SDS011;13092;51.996;4.458;2022-07-05T07:23:09;4.97;;;1.75;;
25111;SDS011;13092;51.996;4.458;2022-07-05T07:25:37;6.25;;;2.03;;
25111;SDS011;13092;51.996;4.458;2022-07-05T07:28:05;4.90;;;1.67;;
25111;SDS011;13092;51.996;4.458;2022-07-05T07:30:33;5.43;;;1.48;;
25111;SDS011;13092;51.996;4.458;2022-07-05T07:33:02;6.70;;;2.38;;
25111;SDS011;13092;51.996;4.458;2022-07-05T07:35:39;4.38;;;1.48;;
25111;SDS011;13092;51.996;4.458;2022-07-05T07:38:07;4.70;;;1.33;;
25111;SDS011;13092;51.996;4.458;2022-07-05T07:40:35;3.65;;;1.67;;
25111;SDS011;13092;51.996;4.458;2022-07-05T07:43:03;2.53;;;1.35;;
25111;SDS011;13092;51.996;4.458;2022-07-05T07:45:35;4.25;;;1.77;;
25111;SDS011;13092;51.996;4.458;2022-07-05T07:48:04;4.55;;;1.63;;
25111;SDS011;13092;51.996;4.458;2022-07-05T07:50:32;3.78;;;1.23;;
25111;SDS011;13092;51.996;4.458;2022-07-05T07:53:01;6.00;;;1.45;;
25111;SDS011;13092;51.996;4.458;2022-07-05T07:55:29;4.70;;;1.48;;
25111;SDS011;13092;51.996;4.458;2022-07-05T07:57:58;6.57;;;1.52;;
25111;SDS011;13092;51.996;4.458;2022-07-05T08:00:26;3.40;;;1.45;;
25111;SDS011;13092;51.996;4.458;2022-07-05T08:02:54;7.10;;;1.67;;
25111;SDS011;13092;51.996;4.458;2022-07-05T08:05:22;4.65;;;1.48;;
25111;SDS011;13092;51.996;4.458;2022-07-05T08:07:50;5.22;;;1.58;;
25111;SDS011;13092;51.996;4.458;2022-07-05T08:10:20;5.15;;;1.48;;
25111;SDS011;13092;51.996;4.458;2022-07-05T08:12:48;2.50;;;1.70;;
25111;SDS011;13092;51.996;4.458;2022-07-05T08:15:16;6.88;;;1.70;;
25111;SDS011;13092;51.996;4.458;2022-07-05T08:17:46;3.42;;;1.60;;
25111;SDS011;13092;51.996;4.458;2022-07-05T08:20:37;5.43;;;1.83;;
25111;SDS011;13092;51.996;4.458;2022-07-05T08:23:22;8.70;;;1.70;;
25111;SDS011;13092;51.996;4.458;2022-07-05T08:25:58;10.50;;;2.13;;
25111;SDS011;13092;51.996;4.458;2022-07-05T08:28:26;4.32;;;1.70;;
25111;SDS011;13092;51.996;4.458;2022-07-05T08:30:55;3.95;;;1.67;;
25111;SDS011;13092;51.996;4.458;2022-07-05T08:33:23;2.53;;;1.60;;
25111;SDS011;13092;51.996;4.458;2022-07-05T08:35:52;2.38;;;1.65;;
25111;SDS011;13092;51.996;4.458;2022-07-05T08:38:20;5.40;;;1.98;;
25111;SDS011;13092;51.996;4.458;2022-07-05T08:40:49;5.07;;;1.95;;
25111;SDS011;13092;51.996;4.458;2022-07-05T08:43:20;5.30;;;1.60;;
25111;SDS011;13092;51.996;4.458;2022-07-05T08:45:50;4.50;;;1.50;;
25111;SDS011;13092;51.996;4.458;2022-07-05T08:48:21;3.63;;;1.50;;
25111;SDS011;13092;51.996;4.458;2022-07-05T08:50:51;4.15;;;1.67;;
25111;SDS011;13092;51.996;4.458;2022-07-05T08:53:23;3.10;;;1.63;;
25111;SDS011;13092;51.996;4.458;2022-07-05T08:55:52;3.72;;;1.60;;
25111;SDS011;13092;51.996;4.458;2022-07-05T08:58:22;7.05;;;1.80;;
25111;SDS011;13092;51.996;4.458;2022-07-05T09:00:50;4.72;;;1.75;;
25111;SDS011;13092;51.996;4.458;2022-07-05T09:03:18;5.25;;;1.70;;
25111;SDS011;13092;51.996;4.458;2022-07-05T09:05:52;4.05;;;1.70;;
25111;SDS011;13092;51.996;4.458;2022-07-05T09:08:22;2.45;;;1.48;;
25111;SDS011;13092;51.996;4.458;2022-07-05T09:10:51;5.65;;;1.60;;
25111;SDS011;13092;51.996;4.458;2022-07-05T09:13:19;3.33;;;1.60;;
25111;SDS011;13092;51.996;4.458;2022-07-05T09:15:49;8.75;;;1.75;;
25111;SDS011;13092;51.996;4.458;2022-07-05T09:21:14;6.78;;;2.20;;
25111;SDS011;13092;51.996;4.458;2022-07-05T09:23:43;7.55;;;1.80;;
25111;SDS011;13092;51.996;4.458;2022-07-05T09:26:12;3.00;;;1.58;;
25111;SDS011;13092;51.996;4.458;2022-07-05T09:28:54;5.88;;;1.85;;
25111;SDS011;13092;51.996;4.458;2022-07-05T09:31:44;5.20;;;1.88;;
25111;SDS011;13092;51.996;4.458;2022-07-05T09:34:15;3.40;;;1.58;;
25111;SDS011;13092;51.996;4.458;2022-07-05T09:36:48;6.55;;;2.00;;
25111;SDS011;13092;51.996;4.458;2022-07-05T09:39:17;3.38;;;1.70;;
25111;SDS011;13092;51.996;4.458;2022-07-05T09:42:14;4.43;;;1.73;;
25111;SDS011;13092;51.996;4.458;2022-07-05T09:44:47;3.95;;;1.88;;
25111;SDS011;13092;51.996;4.458;2022-07-05T09:47:18;3.25;;;1.58;;
25111;SDS011;13092;51.996;4.458;2022-07-05T09:49:48;3.05;;;1.55;;
25111;SDS011;13092;51.996;4.458;2022-07-05T09:52:37;4.63;;;1.77;;
25111;SDS011;13092;51.996;4.458;2022-07-05T09:55:06;3.28;;;1.52;;
25111;SDS011;13092;51.996;4.458;2022-07-05T09:57:36;6.90;;;1.80;;
25111;SDS011;13092;51.996;4.458;2022-07-05T10:00:08;6.43;;;1.90;;
25111;SDS011;13092;51.996;4.458;2022-07-05T10:02:39;7.28;;;1.83;;
25111;SDS011;13092;51.996;4.458;2022-07-05T10:05:08;8.27;;;2.10;;
25111;SDS011;13092;51.996;4.458;2022-07-05T10:07:38;9.13;;;2.35;;
25111;SDS011;13092;51.996;4.458;2022-07-05T10:10:08;6.93;;;1.95;;
25111;SDS011;13092;51.996;4.458;2022-07-05T10:12:38;4.70;;;1.77;;
25111;SDS011;13092;51.996;4.458;2022-07-05T10:15:10;3.70;;;1.70;;
25111;SDS011;13092;51.996;4.458;2022-07-05T10:17:40;2.10;;;1.52;;
25111;SDS011;13092;51.996;4.458;2022-07-05T10:20:11;7.05;;;1.90;;
25111;SDS011;13092;51.996;4.458;2022-07-05T10:22:42;2.38;;;1.27;;
25111;SDS011;13092;51.996;4.458;2022-07-05T10:25:11;3.90;;;1.60;;
25111;SDS011;13092;51.996;4.458;2022-07-05T10:27:42;5.45;;;1.85;;
25111;SDS011;13092;51.996;4.458;2022-07-05T10:30:12;4.45;;;1.80;;
25111;SDS011;13092;51.996;4.458;2022-07-05T10:32:43;5.28;;;1.70;;
25111;SDS011;13092;51.996;4.458;2022-07-05T10:35:12;3.70;;;1.63;;
25111;SDS011;13092;51.996;4.458;2022-07-05T10:37:49;4.20;;;1.85;;
25111;SDS011;13092;51.996;4.458;2022-07-05T10:40:17;3.58;;;1.60;;
25111;SDS011;13092;51.996;4.458;2022-07-05T10:42:46;4.72;;;1.70;;
25111;SDS011;13092;51.996;4.458;2022-07-05T10:45:27;5.78;;;1.75;;
25111;SDS011;13092;51.996;4.458;2022-07-05T10:48:12;1.83;;;1.40;;
25111;SDS011;13092;51.996;4.458;2022-07-05T10:50:45;4.70;;;1.50;;
25111;SDS011;13092;51.996;4.458;2022-07-05T10:53:16;3.47;;;1.50;;
25111;SDS011;13092;51.996;4.458;2022-07-05T10:55:49;3.53;;;1.60;;
25111;SDS011;13092;51.996;4.458;2022-07-05T10:58:28;3.35;;;1.45;;
25111;SDS011;13092;51.996;4.458;2022-07-05T11:06:56;3.70;;;1.70;;
25111;SDS011;13092;51.996;4.458;2022-07-05T11:09:24;3.97;;;1.42;;
25111;SDS011;13092;51.996;4.458;2022-07-05T11:14:54;5.72;;;1.67;;
25111;SDS011;13092;51.996;4.458;2022-07-05T11:17:34;3.63;;;1.33;;
25111;SDS011;13092;51.996;4.458;2022-07-05T11:20:27;2.92;;;1.25;;
25111;SDS011;13092;51.996;4.458;2022-07-05T11:23:01;3.15;;;1.30;;
25111;SDS011;13092;51.996;4.458;2022-07-05T11:25:31;1.88;;;1.10;;
25111;SDS011;13092;51.996;4.458;2022-07-05T11:28:05;3.08;;;1.70;;
25111;SDS011;13092;51.996;4.458;2022-07-05T11:30:47;1.70;;;1.40;;
25111;SDS011;13092;51.996;4.458;2022-07-05T11:33:34;2.33;;;1.38;;
25111;SDS011;13092;51.996;4.458;2022-07-05T11:36:05;2.03;;;1.40;;
25111;SDS011;13092;51.996;4.458;2022-07-05T11:38:35;2.22;;;1.48;;
25111;SDS011;13092;51.996;4.458;2022-07-05T11:41:44;2.58;;;1.30;;
25111;SDS011;13092;51.996;4.458;2022-07-05T11:44:13;2.55;;;1.45;;
25111;SDS011;13092;51.996;4.458;2022-07-05T11:46:43;3.17;;;1.30;;
25111;SDS011;13092;51.996;4.458;2022-07-05T11:49:22;4.07;;;1.27;;
25111;SDS011;13092;51.996;4.458;2022-07-05T11:51:53;3.55;;;1.48;;
25111;SDS011;13092;51.996;4.458;2022-07-05T11:54:22;2.88;;;1.35;;
25111;SDS011;13092;51.996;4.458;2022-07-05T11:56:51;3.15;;;1.10;;
25111;SDS011;13092;51.996;4.458;2022-07-05T11:59:19;2.72;;;1.27;;
25111;SDS011;13092;51.996;4.458;2022-07-05T12:01:48;2.42;;;1.40;;
25111;SDS011;13092;51.996;4.458;2022-07-05T12:04:20;2.60;;;1.33;;
25111;SDS011;13092;51.996;4.458;2022-07-05T12:06:51;3.90;;;1.20;;
25111;SDS011;13092;51.996;4.458;2022-07-05T12:09:22;3.90;;;1.30;;
25111;SDS011;13092;51.996;4.458;2022-07-05T12:11:51;7.22;;;1.60;;
25111;SDS011;13092;51.996;4.458;2022-07-05T12:14:45;12.13;;;1.95;;
25111;SDS011;13092;51.996;4.458;2022-07-05T12:17:15;2.60;;;1.25;;
25111;SDS011;13092;51.996;4.458;2022-07-05T12:19:52;2.05;;;1.40;;
25111;SDS011;13092;51.996;4.458;2022-07-05T12:22:31;3.90;;;1.63;;
25111;SDS011;13092;51.996;4.458;2022-07-05T12:25:00;3.45;;;1.60;;
25111;SDS011;13092;51.996;4.458;2022-07-05T12:27:31;2.33;;;1.20;;
25111;SDS011;13092;51.996;4.458;2022-07-05T12:30:01;3.03;;;1.70;;
25111;SDS011;13092;51.996;4.458;2022-07-05T12:32:31;2.13;;;1.40;;
25111;SDS011;13092;51.996;4.458;2022-07-05T12:35:02;2.53;;;1.30;;
25111;SDS011;13092;51.996;4.458;2022-07-05T12:37:32;2.78;;;1.55;;
25111;SDS011;13092;51.996;4.458;2022-07-05T12:40:02;4.50;;;1.80;;
25111;SDS011;13092;51.996;4.458;2022-07-05T12:42:33;2.08;;;1.50;;
25111;SDS011;13092;51.996;4.458;2022-07-05T12:45:11;4.00;;;1.50;;
25111;SDS011;13092;51.996;4.458;2022-07-05T12:47:47;4.55;;;1.30;;
25111;SDS011;13092;51.996;4.458;2022-07-05T12:50:21;2.70;;;1.40;;
25111;SDS011;13092;51.996;4.458;2022-07-05T12:53:01;2.53;;;1.45;;
25111;SDS011;13092;51.996;4.458;2022-07-05T12:55:48;2.53;;;1.40;;
25111;SDS011;13092;51.996;4.458;2022-07-05T12:58:44;5.68;;;1.70;;
25111;SDS011;13092;51.996;4.458;2022-07-05T13:01:21;5.00;;;1.75;;
25111;SDS011;13092;51.996;4.458;2022-07-05T13:04:00;4.07;;;1.42;;
25111;SDS011;13092;51.996;4.458;2022-07-05T13:06:43;2.97;;;1.60;;
25111;SDS011;13092;51.996;4.458;2022-07-05T13:09:16;3.08;;;1.50;;
25111;SDS011;13092;51.996;4.458;2022-07-05T13:12:07;3.15;;;1.75;;
25111;SDS011;13092;51.996;4.458;2022-07-05T13:14:38;3.30;;;1.63;;
25111;SDS011;13092;51.996;4.458;2022-07-05T13:17:07;4.97;;;2.10;;
25111;SDS011;13092;51.996;4.458;2022-07-05T13:19:36;5.43;;;1.88;;
25111;SDS011;13092;51.996;4.458;2022-07-05T13:22:08;5.22;;;1.85;;
25111;SDS011;13092;51.996;4.458;2022-07-05T13:24:36;3.78;;;1.80;;
25111;SDS011;13092;51.996;4.458;2022-07-05T13:27:05;4.20;;;1.90;;
25111;SDS011;13092;51.996;4.458;2022-07-05T13:29:36;5.45;;;1.85;;
25111;SDS011;13092;51.996;4.458;2022-07-05T13:32:04;4.20;;;2.00;;
25111;SDS011;13092;51.996;4.458;2022-07-05T13:34:33;9.20;;;2.30;;
25111;SDS011;13092;51.996;4.458;2022-07-05T13:37:01;4.75;;;1.73;;
25111;SDS011;13092;51.996;4.458;2022-07-05T13:39:31;5.45;;;2.17;;
25111;SDS011;13092;51.996;4.458;2022-07-05T13:41:58;2.70;;;1.80;;
25111;SDS011;13092;51.996;4.458;2022-07-05T13:44:27;4.38;;;2.13;;
25111;SDS011;13092;51.996;4.458;2022-07-05T13:46:55;5.43;;;2.20;;
25111;SDS011;13092;51.996;4.458;2022-07-05T13:49:22;2.70;;;1.80;;
25111;SDS011;13092;51.996;4.458;2022-07-05T13:51:51;3.08;;;1.70;;
25111;SDS011;13092;51.996;4.458;2022-07-05T13:54:19;4.72;;;1.80;;
25111;SDS011;13092;51.996;4.458;2022-07-05T13:56:48;5.10;;;1.70;;
25111;SDS011;13092;51.996;4.458;2022-07-05T13:59:18;4.10;;;1.95;;
25111;SDS011;13092;51.996;4.458;2022-07-05T14:01:46;6.00;;;2.17;;
25111;SDS011;13092;51.996;4.458;2022-07-05T14:04:15;6.13;;;1.92;;
25111;SDS011;13092;51.996;4.458;2022-07-05T14:06:43;3.00;;;1.80;;
25111;SDS011;13092;51.996;4.458;2022-07-05T14:09:12;5.30;;;1.80;;
25111;SDS011;13092;51.996;4.458;2022-07-05T14:11:40;4.95;;;1.75;;
25111;SDS011;13092;51.996;4.458;2022-07-05T14:14:10;5.72;;;1.60;;
25111;SDS011;13092;51.996;4.458;2022-07-05T14:16:39;5.30;;;2.45;;
25111;SDS011;13092;51.996;4.458;2022-07-05T14:19:07;6.00;;;2.13;;
25111;SDS011;13092;51.996;4.458;2022-07-05T14:21:35;5.63;;;2.35;;
25111;SDS011;13092;51.996;4.458;2022-07-05T14:24:06;7.53;;;2.10;;
25111;SDS011;13092;51.996;4.458;2022-07-05T14:26:34;3.40;;;1.80;;
25111;SDS011;13092;51.996;4.458;2022-07-05T14:29:02;6.20;;;2.45;;
25111;SDS011;13092;51.996;4.458;2022-07-05T14:31:31;2.88;;;1.67;;
25111;SDS011;13092;51.996;4.458;2022-07-05T14:33:59;3.50;;;2.10;;
25111;SDS011;13092;51.996;4.458;2022-07-05T14:36:27;4.53;;;1.98;;
25111;SDS011;13092;51.996;4.458;2022-07-05T14:38:55;5.18;;;2.05;;
25111;SDS011;13092;51.996;4.458;2022-07-05T14:41:25;2.88;;;1.60;;
25111;SDS011;13092;51.996;4.458;2022-07-05T14:43:54;6.07;;;1.85;;
25111;SDS011;13092;51.996;4.458;2022-07-05T14:46:22;4.90;;;1.83;;
25111;SDS011;13092;51.996;4.458;2022-07-05T14:48:52;6.03;;;1.90;;
25111;SDS011;13092;51.996;4.458;2022-07-05T14:51:20;6.20;;;1.80;;
25111;SDS011;13092;51.996;4.458;2022-07-05T14:53:48;4.97;;;1.80;;
25111;SDS011;13092;51.996;4.458;2022-07-05T14:56:16;3.45;;;1.77;;
25111;SDS011;13092;51.996;4.458;2022-07-05T14:58:44;4.25;;;1.98;;
25111;SDS011;13092;51.996;4.458;2022-07-05T15:01:14;7.38;;;1.90;;
25111;SDS011;13092;51.996;4.458;2022-07-05T15:03:44;3.85;;;1.92;;
25111;SDS011;13092;51.996;4.458;2022-07-05T15:06:13;7.45;;;2.22;;
25111;SDS011;13092;51.996;4.458;2022-07-05T15:08:42;4.47;;;2.20;;
25111;SDS011;13092;51.996;4.458;2022-07-05T15:11:10;5.55;;;2.30;;